createdAt,value
2019-05-21T00:00:32.810Z,21.83
2019-05-21T00:03:20.540Z,22.97
2019-05-21T00:06:07.912Z,21.57
2019-05-21T00:08:56.123Z,22.87
2019-05-21T00:11:43.929Z,22.37
2019-05-21T00:14:31.758Z,21.23
2019-05-21T00:17:19.384Z,22.30
2019-05-21T00:20:07.219Z,21.33
2019-05-21T00:22:54.833Z,21.67
2019-05-21T00:25:42.675Z,22.13
2019-05-21T00:28:39.575Z,23.40
2019-05-21T00:32:03.906Z,23.10
2019-05-21T00:35:42.510Z,25.20
2019-05-21T00:39:07.172Z,22.80
2019-05-21T00:42:00.524Z,24.37
2019-05-21T00:44:48.152Z,26.33
2019-05-21T00:47:35.966Z,26.63
2019-05-21T00:50:23.925Z,25.67
2019-05-21T00:53:12.144Z,24.97
2019-05-21T00:56:00.207Z,27.17
2019-05-21T00:58:48.147Z,25.97
2019-05-21T01:01:35.813Z,26.67
2019-05-21T01:04:23.684Z,26.83
2019-05-21T01:07:11.543Z,28.23
2019-05-21T01:10:00.018Z,27.60
2019-05-21T01:12:47.623Z,27.13
2019-05-21T01:15:35.367Z,27.77
2019-05-21T01:18:22.976Z,27.87
2019-05-21T01:21:11.067Z,26.33
2019-05-21T01:23:59.287Z,25.67
2019-05-21T01:26:46.929Z,25.70
2019-05-21T01:29:34.867Z,25.90
2019-05-21T01:32:23.051Z,26.23
2019-05-21T01:35:17.065Z,26.30
2019-05-21T01:37:59.051Z,24.90
2019-05-21T01:40:47.325Z,24.63
2019-05-21T01:43:34.945Z,24.60
2019-05-21T01:46:22.483Z,24.80
2019-05-21T01:49:10.707Z,25.97
2019-05-21T01:51:58.994Z,24.50
2019-05-21T01:54:47.008Z,24.87
2019-05-21T01:57:34.647Z,25.60
2019-05-21T02:00:22.486Z,24.57
2019-05-21T02:03:10.088Z,24.97
2019-05-21T02:05:57.941Z,26.47
2019-05-21T02:08:46.163Z,25.40
2019-05-21T02:11:33.624Z,25.67
2019-05-21T02:14:21.240Z,25.40
2019-05-21T02:17:08.973Z,27.53
2019-05-21T02:19:56.486Z,26.87
2019-05-21T02:22:44.437Z,29.00
2019-05-21T02:25:32.083Z,29.57
2019-05-21T02:28:20.141Z,29.60
2019-05-21T02:31:07.758Z,30.17
2019-05-21T02:33:55.363Z,27.83
2019-05-21T02:36:43.214Z,28.30
2019-05-21T02:39:31.027Z,28.27
2019-05-21T02:42:18.633Z,28.10
2019-05-21T02:45:06.138Z,28.40
2019-05-21T02:47:53.780Z,27.33
2019-05-21T02:50:41.819Z,28.10
2019-05-21T02:53:33.900Z,27.30
2019-05-21T02:56:17.566Z,27.93
2019-05-21T02:59:06.090Z,29.10
2019-05-21T03:02:00.953Z,27.40
2019-05-21T03:04:49.109Z,29.33
2019-05-21T03:07:36.899Z,29.40
2019-05-21T03:10:24.495Z,27.53
2019-05-21T03:13:11.949Z,27.00
2019-05-21T03:15:59.667Z,27.30
2019-05-21T03:18:47.830Z,27.57
2019-05-21T03:21:35.464Z,25.33
2019-05-21T03:24:23.067Z,24.63
2019-05-21T03:27:10.785Z,24.27
2019-05-21T03:29:58.424Z,23.87
2019-05-21T03:32:45.991Z,24.30
2019-05-21T03:35:34.231Z,22.80
2019-05-21T03:38:22.060Z,22.00
2019-05-21T03:41:10.283Z,21.73
2019-05-21T03:43:58.268Z,21.77
2019-05-21T03:46:45.748Z,20.53
2019-05-21T03:49:34.121Z,19.87
2019-05-21T03:52:21.644Z,18.47
2019-05-21T03:55:09.241Z,19.00
2019-05-21T03:57:57.014Z,18.53
2019-05-21T04:00:44.950Z,18.83
2019-05-21T04:03:33.119Z,19.00
2019-05-21T04:06:21.015Z,19.07
2019-05-21T04:09:08.888Z,19.83
2019-05-21T04:11:56.383Z,19.47
2019-05-21T04:14:47.032Z,18.83
2019-05-21T04:17:40.319Z,19.17
2019-05-21T04:20:28.472Z,18.80
2019-05-21T04:23:15.897Z,18.97
2019-05-21T04:26:03.653Z,19.03
2019-05-21T04:28:51.860Z,19.17
2019-05-21T04:31:39.354Z,19.17
2019-05-21T04:34:27.595Z,19.10
2019-05-21T04:37:17.447Z,19.00
2019-05-21T04:40:03.481Z,19.40
2019-05-21T04:42:51.689Z,20.17
2019-05-21T04:45:39.285Z,20.87
2019-05-21T04:48:27.335Z,18.40
2019-05-21T04:51:15.502Z,19.50
2019-05-21T04:54:03.743Z,18.97
2019-05-21T04:56:51.959Z,19.13
2019-05-21T04:59:39.738Z,19.87
2019-05-21T05:02:27.232Z,20.23
2019-05-21T05:05:14.841Z,23.17
2019-05-21T05:08:02.461Z,23.50
2019-05-21T05:10:50.986Z,20.87
2019-05-21T05:13:39.133Z,21.57
2019-05-21T05:16:26.629Z,21.87
2019-05-21T05:19:14.166Z,20.90
2019-05-21T05:22:02.690Z,21.60
2019-05-21T05:24:50.370Z,20.87
2019-05-21T05:27:37.967Z,22.00
2019-05-21T05:30:25.417Z,22.00
2019-05-21T05:33:13.127Z,23.03
2019-05-21T05:36:01.299Z,26.50
2019-05-21T05:38:48.929Z,22.70
2019-05-21T05:41:36.872Z,21.90
2019-05-21T05:44:24.657Z,22.53
2019-05-21T05:47:12.097Z,22.67
2019-05-21T05:49:59.762Z,22.60
2019-05-21T05:52:48.070Z,23.20
2019-05-21T05:55:36.345Z,23.40
2019-05-21T05:58:23.865Z,24.30
2019-05-21T06:01:11.660Z,22.53
2019-05-21T06:03:59.978Z,23.53
2019-05-21T06:06:47.778Z,24.73
2019-05-21T06:09:36.038Z,24.90
2019-05-21T06:12:23.766Z,24.17
2019-05-21T06:15:11.648Z,23.37
2019-05-21T06:17:59.177Z,24.47
2019-05-21T06:20:47.008Z,23.40
2019-05-21T06:23:35.149Z,23.37
2019-05-21T06:26:22.989Z,23.80
2019-05-21T06:29:10.885Z,21.43
2019-05-21T06:31:58.356Z,22.50
2019-05-21T06:34:48.635Z,22.87
2019-05-21T06:37:34.865Z,23.77
2019-05-21T06:40:22.388Z,23.60
2019-05-21T06:43:10.472Z,20.93
2019-05-21T06:45:58.180Z,22.00
2019-05-21T06:48:46.653Z,21.43
2019-05-21T06:51:34.392Z,21.90
2019-05-21T06:54:21.959Z,21.50
2019-05-21T06:57:09.491Z,21.60
2019-05-21T06:59:57.592Z,22.80
2019-05-21T07:02:45.152Z,26.47
2019-05-21T07:05:32.739Z,23.10
2019-05-21T07:08:34.057Z,22.73
2019-05-21T07:11:09.333Z,23.40
2019-05-21T07:13:57.113Z,21.67
2019-05-21T07:16:44.977Z,22.17
2019-05-21T07:19:32.618Z,14.17
2019-05-21T07:22:20.925Z,13.67
2019-05-21T07:25:09.149Z,12.90
2019-05-21T07:27:56.715Z,13.80
2019-05-21T07:30:44.185Z,14.07
2019-05-21T07:33:32.337Z,13.73
2019-05-21T07:36:20.107Z,13.73
2019-05-21T07:39:07.827Z,14.70
2019-05-21T07:41:55.559Z,15.40
2019-05-21T07:44:43.978Z,15.83
2019-05-21T07:47:31.999Z,17.70
2019-05-21T07:50:19.555Z,17.63
2019-05-21T07:53:07.797Z,18.97
2019-05-21T07:55:55.777Z,18.57
2019-05-21T07:58:43.356Z,19.17
2019-05-21T08:01:31.173Z,20.30
2019-05-21T08:04:19.411Z,20.27
2019-05-21T08:07:07.377Z,19.73
2019-05-21T08:09:55.572Z,19.37
2019-05-21T08:12:43.408Z,19.73
2019-05-21T08:15:31.571Z,19.30
2019-05-21T08:18:19.887Z,19.93
2019-05-21T08:21:07.979Z,20.37
2019-05-21T08:23:55.807Z,20.60
2019-05-21T08:26:43.443Z,19.53
2019-05-21T08:29:31.088Z,20.40
2019-05-21T08:32:18.513Z,19.97
2019-05-21T08:35:06.288Z,22.57
2019-05-21T08:37:53.906Z,21.77
2019-05-21T08:40:41.885Z,23.13
2019-05-21T08:43:30.122Z,24.63
2019-05-21T08:46:18.389Z,24.10
2019-05-21T08:49:06.721Z,23.47
2019-05-21T08:51:55.168Z,22.73
2019-05-21T08:54:55.868Z,20.57
2019-05-21T08:57:40.413Z,23.23
2019-05-21T09:00:28.146Z,23.70
2019-05-21T09:03:15.995Z,23.10
2019-05-21T09:06:04.226Z,22.23
2019-05-21T09:08:51.724Z,20.30
2019-05-21T09:11:39.601Z,20.40
2019-05-21T09:14:27.460Z,21.70
2019-05-21T09:17:15.154Z,20.80
2019-05-21T09:20:03.609Z,19.43
2019-05-21T09:22:51.764Z,18.97
2019-05-21T09:25:39.672Z,20.50
2019-05-21T09:28:27.416Z,20.27
2019-05-21T09:31:15.085Z,18.00
2019-05-21T09:34:02.618Z,18.60
2019-05-21T09:36:50.304Z,18.23
2019-05-21T09:39:38.194Z,17.23
2019-05-21T09:42:25.827Z,18.03
2019-05-21T09:45:13.362Z,17.93
2019-05-21T09:48:01.457Z,17.37
2019-05-21T09:50:48.968Z,16.43
2019-05-21T09:53:37.144Z,15.73
2019-05-21T09:56:33.989Z,15.33
2019-05-21T09:59:34.412Z,16.70
2019-05-21T10:02:23.921Z,16.57
2019-05-21T10:05:11.580Z,16.20
2019-05-21T10:07:59.699Z,15.73
2019-05-21T10:10:47.979Z,14.97
2019-05-21T10:13:36.031Z,16.37
2019-05-21T10:16:24.223Z,15.33
2019-05-21T10:19:11.805Z,15.67
2019-05-21T10:21:59.644Z,15.43
2019-05-21T10:24:47.248Z,15.33
2019-05-21T10:27:35.432Z,16.57
2019-05-21T10:30:23.544Z,16.23
2019-05-21T10:33:11.694Z,15.47
2019-05-21T10:35:59.212Z,15.33
2019-05-21T10:38:47.101Z,16.17
2019-05-21T10:41:34.587Z,17.10
2019-05-21T10:44:22.804Z,18.10
2019-05-21T10:47:10.336Z,17.00
2019-05-21T10:49:58.320Z,18.13
2019-05-21T10:52:46.649Z,20.40
2019-05-21T10:55:34.472Z,19.07
2019-05-21T10:58:22.226Z,19.10
2019-05-21T11:01:17.683Z,21.20
2019-05-21T11:04:21.908Z,22.00
2019-05-21T11:07:11.521Z,20.23
2019-05-21T11:09:59.073Z,19.83
2019-05-21T11:12:47.046Z,21.07
2019-05-21T11:15:34.829Z,20.50
2019-05-21T11:18:22.668Z,23.33
2019-05-21T11:21:10.390Z,22.97
2019-05-21T11:23:58.870Z,22.40
2019-05-21T11:26:46.424Z,23.00
2019-05-21T11:29:34.521Z,20.57
2019-05-21T11:32:22.034Z,22.20
2019-05-21T11:35:09.792Z,21.47
2019-05-21T11:37:57.394Z,22.60
2019-05-21T11:40:50.771Z,21.10
2019-05-21T11:43:33.218Z,20.67
2019-05-21T11:46:21.600Z,20.60
2019-05-21T11:49:09.281Z,21.07
2019-05-21T11:51:57.030Z,19.83
2019-05-21T11:54:45.229Z,21.30
2019-05-21T11:57:33.583Z,20.13
2019-05-21T12:00:21.999Z,19.70
2019-05-21T12:03:09.441Z,17.53
2019-05-21T12:05:57.147Z,16.27
2019-05-21T12:08:56.023Z,16.70
2019-05-21T12:11:32.256Z,15.87
2019-05-21T12:14:20.531Z,17.07
2019-05-21T12:17:08.843Z,16.27
2019-05-21T12:19:56.230Z,16.47
2019-05-21T12:22:44.233Z,17.33
2019-05-21T12:25:31.989Z,18.13
2019-05-21T12:28:20.388Z,16.63
2019-05-21T12:31:07.948Z,19.20
2019-05-21T12:33:56.177Z,18.47
2019-05-21T12:36:43.748Z,18.77
2019-05-21T12:39:32.071Z,21.60
2019-05-21T12:42:19.871Z,22.43
2019-05-21T12:45:07.525Z,23.50
2019-05-21T12:47:55.446Z,22.63
2019-05-21T12:50:43.714Z,22.70
2019-05-21T12:53:31.959Z,22.73
2019-05-21T12:56:19.592Z,21.73
2019-05-21T12:59:07.220Z,23.90
2019-05-21T13:01:57.316Z,25.33
2019-05-21T13:04:45.368Z,25.97
2019-05-21T13:07:33.084Z,29.20
2019-05-21T13:10:20.816Z,29.23
2019-05-21T13:13:08.522Z,26.97
2019-05-21T13:15:56.191Z,26.03
2019-05-21T13:18:43.793Z,26.90
2019-05-21T13:21:31.663Z,27.03
2019-05-21T13:24:19.464Z,26.20
2019-05-21T13:27:07.865Z,24.80
2019-05-21T13:29:55.455Z,23.60
2019-05-21T13:32:43.977Z,21.03
2019-05-21T13:35:31.039Z,19.23
2019-05-21T13:38:18.740Z,21.47
2019-05-21T13:41:06.333Z,20.47
2019-05-21T13:43:54.393Z,21.43
2019-05-21T13:46:42.267Z,22.53
2019-05-21T13:49:29.874Z,21.93
2019-05-21T13:52:17.537Z,23.17
2019-05-21T13:55:05.580Z,17.90
2019-05-21T13:57:53.696Z,22.20
2019-05-21T14:00:43.733Z,22.27
2019-05-21T14:03:31.148Z,23.50
2019-05-21T14:06:20.392Z,21.87
2019-05-21T14:09:06.943Z,20.07
2019-05-21T14:11:56.623Z,21.17
2019-05-21T14:14:42.402Z,21.70
2019-05-21T14:17:29.948Z,21.30
2019-05-21T14:20:18.322Z,23.63
2019-05-21T14:23:06.597Z,20.73
2019-05-21T14:25:54.206Z,24.37
2019-05-21T14:28:41.853Z,24.30
2019-05-21T14:31:29.478Z,23.00
2019-05-21T14:34:17.206Z,24.23
2019-05-21T14:37:04.955Z,23.97
2019-05-21T14:39:53.169Z,22.53
2019-05-21T14:42:58.117Z,24.40
2019-05-21T14:45:33.915Z,21.90
2019-05-21T14:48:17.313Z,20.03
2019-05-21T14:51:05.851Z,22.20
2019-05-21T14:53:54.128Z,24.33
2019-05-21T14:56:46.691Z,21.60
2019-05-21T14:59:29.351Z,21.80
2019-05-21T15:02:16.901Z,20.93
2019-05-21T15:05:04.930Z,21.00
2019-05-21T15:07:52.326Z,20.40
2019-05-21T15:10:48.643Z,20.40
2019-05-21T15:13:28.229Z,22.17
2019-05-21T15:16:16.232Z,20.30
2019-05-21T15:19:03.822Z,21.10
2019-05-21T15:21:52.999Z,20.97
2019-05-21T15:24:41.346Z,20.53
2019-05-21T15:27:29.373Z,17.90
2019-05-21T15:30:16.740Z,18.60
2019-05-21T15:33:04.948Z,19.43
2019-05-21T15:35:52.342Z,19.27
2019-05-21T15:38:50.196Z,17.67
2019-05-21T15:41:28.108Z,14.47
2019-05-21T15:44:15.987Z,17.27
2019-05-21T15:47:03.903Z,16.30
2019-05-21T15:49:51.647Z,16.67
2019-05-21T15:52:39.107Z,16.07
2019-05-21T15:55:26.696Z,15.80
2019-05-21T15:58:15.046Z,16.40
2019-05-21T16:01:02.879Z,17.47
2019-05-21T16:03:50.514Z,16.83
2019-05-21T16:06:38.743Z,16.90
2019-05-21T16:09:26.388Z,16.93
2019-05-21T16:12:14.426Z,17.13
2019-05-21T16:15:02.141Z,16.73
2019-05-21T16:17:50.090Z,17.57
2019-05-21T16:20:42.069Z,18.47
2019-05-21T16:23:26.843Z,17.73
2019-05-21T16:26:14.918Z,16.37
2019-05-21T16:29:03.172Z,18.00
2019-05-21T16:31:51.421Z,17.43
2019-05-21T16:34:39.334Z,17.27
2019-05-21T16:37:27.113Z,16.57
2019-05-21T16:40:14.765Z,16.33
2019-05-21T16:43:03.177Z,17.37
2019-05-21T16:45:50.932Z,16.60
2019-05-21T16:48:38.448Z,17.90
2019-05-21T16:51:26.702Z,18.03
2019-05-21T16:54:14.320Z,18.63
2019-05-21T16:57:02.057Z,21.90
2019-05-21T16:59:49.995Z,20.17
2019-05-21T17:02:37.698Z,19.23
2019-05-21T17:05:25.685Z,19.43
2019-05-21T17:08:13.622Z,18.73
2019-05-21T17:11:00.919Z,16.43
2019-05-21T17:13:49.245Z,16.37
2019-05-21T17:16:36.789Z,17.33
2019-05-21T17:19:25.062Z,18.10
2019-05-21T17:22:13.278Z,17.97
2019-05-21T17:25:00.937Z,18.43
2019-05-21T17:27:48.738Z,17.17
2019-05-21T17:30:36.696Z,17.67
2019-05-21T17:33:24.307Z,17.67
2019-05-21T17:36:12.472Z,17.23
2019-05-21T17:39:00.204Z,17.73
2019-05-21T17:41:47.996Z,18.13
2019-05-21T17:44:35.825Z,19.03
2019-05-21T17:47:23.490Z,19.10
2019-05-21T17:50:11.475Z,18.57
2019-05-21T17:52:59.424Z,18.43
2019-05-21T17:55:47.627Z,18.10
2019-05-21T17:58:35.351Z,18.20
2019-05-21T18:01:23.090Z,17.83
2019-05-21T18:04:10.911Z,17.70
2019-05-21T18:06:58.493Z,18.63
2019-05-21T18:09:46.938Z,19.17
2019-05-21T18:12:35.015Z,20.90
2019-05-21T18:15:22.898Z,19.87
2019-05-21T18:18:10.533Z,20.97
2019-05-21T18:20:58.367Z,19.40
2019-05-21T18:23:46.852Z,21.70
2019-05-21T18:26:35.073Z,21.20
2019-05-21T18:29:22.971Z,21.97
2019-05-21T18:32:10.698Z,19.57
2019-05-21T18:34:58.334Z,23.63
2019-05-21T18:37:45.955Z,22.23
2019-05-21T18:40:33.479Z,23.03
2019-05-21T18:43:21.052Z,20.43
2019-05-21T18:46:08.987Z,22.77
2019-05-21T18:48:57.195Z,24.63
2019-05-21T18:51:45.068Z,23.63
2019-05-21T18:54:32.966Z,24.30
2019-05-21T18:57:20.958Z,23.83
2019-05-21T19:00:08.566Z,23.83
2019-05-21T19:02:56.739Z,24.30
2019-05-21T19:05:44.492Z,20.80
2019-05-21T19:08:32.690Z,22.90
2019-05-21T19:11:20.490Z,21.80
2019-05-21T19:14:08.608Z,19.70
2019-05-21T19:16:56.229Z,21.27
2019-05-21T19:19:43.953Z,19.83
2019-05-21T19:22:32.195Z,19.33
2019-05-21T19:25:20.217Z,19.37
2019-05-21T19:28:08.116Z,19.30
2019-05-21T19:30:56.204Z,15.17
2019-05-21T19:33:44.422Z,18.53
2019-05-21T19:36:31.936Z,20.00
2019-05-21T19:39:19.858Z,20.20
2019-05-21T19:42:07.900Z,19.60
2019-05-21T19:44:56.177Z,19.23
2019-05-21T19:47:43.936Z,19.10
2019-05-21T19:50:31.659Z,20.10
2019-05-21T19:53:19.237Z,19.97
2019-05-21T19:56:07.602Z,21.07
2019-05-21T19:58:55.341Z,21.07
2019-05-21T20:01:43.093Z,20.00
2019-05-21T20:04:30.886Z,21.47
2019-05-21T20:07:18.844Z,21.30
2019-05-21T20:10:06.716Z,22.27
2019-05-21T20:12:54.828Z,22.37
2019-05-21T20:15:42.624Z,22.67
2019-05-21T20:18:30.163Z,20.57
2019-05-21T20:21:18.042Z,20.90
2019-05-21T20:24:05.823Z,21.30
2019-05-21T20:26:53.409Z,21.33
2019-05-21T20:29:41.645Z,19.33
2019-05-21T20:32:29.332Z,19.43
2019-05-21T20:35:17.332Z,20.50
2019-05-21T20:38:05.540Z,18.87
2019-05-21T20:40:53.817Z,19.17
2019-05-21T20:43:41.839Z,18.57
2019-05-21T20:46:29.505Z,18.80
2019-05-21T20:49:17.618Z,18.30
2019-05-21T20:52:18.225Z,20.63
2019-05-21T20:54:53.448Z,18.50
2019-05-21T20:57:41.601Z,18.23
2019-05-21T21:00:34.724Z,16.63
2019-05-21T21:03:22.672Z,19.70
2019-05-21T21:06:10.187Z,19.50
2019-05-21T21:08:58.291Z,20.17
2019-05-21T21:11:46.097Z,20.17
2019-05-21T21:14:34.238Z,19.33
2019-05-21T21:17:22.053Z,19.37
2019-05-21T21:20:10.296Z,21.40
2019-05-21T21:22:58.035Z,21.13
2019-05-21T21:25:45.841Z,20.37
2019-05-21T21:28:37.203Z,21.00
2019-05-21T21:31:22.489Z,21.43
2019-05-21T21:34:10.270Z,21.33
2019-05-21T21:36:58.713Z,21.40
2019-05-21T21:39:46.971Z,21.80
2019-05-21T21:42:34.611Z,22.03
2019-05-21T21:45:22.444Z,20.47
2019-05-21T21:48:10.880Z,20.77
2019-05-21T21:50:59.006Z,23.47
2019-05-21T21:53:47.209Z,23.33
2019-05-21T21:56:35.510Z,22.50
2019-05-21T21:59:23.658Z,22.83
2019-05-21T22:04:43.964Z,22.17
2019-05-21T22:07:31.532Z,23.97
2019-05-21T22:10:19.616Z,23.13
2019-05-21T22:13:07.850Z,23.77
2019-05-21T22:15:55.278Z,25.03
2019-05-21T22:18:43.632Z,24.83
2019-05-21T22:21:31.159Z,25.90
2019-05-21T22:24:19.299Z,25.47
2019-05-21T22:27:07.159Z,22.53
2019-05-21T22:29:54.813Z,24.03
2019-05-21T22:32:42.612Z,24.87
2019-05-21T22:35:30.488Z,26.57
2019-05-21T22:38:18.438Z,27.83
2019-05-21T22:41:06.515Z,27.67
2019-05-21T22:43:54.695Z,27.43
2019-05-21T22:46:42.927Z,28.07
2019-05-21T22:49:33.825Z,29.07
2019-05-21T22:52:17.940Z,27.00
2019-05-21T22:55:06.386Z,26.97
2019-05-21T22:57:54.173Z,26.23
2019-05-21T23:00:41.922Z,27.87
2019-05-21T23:03:30.100Z,27.73
2019-05-21T23:06:18.192Z,27.17
2019-05-21T23:09:06.958Z,27.03
2019-05-21T23:11:54.870Z,26.20
2019-05-21T23:14:42.736Z,28.87
2019-05-21T23:17:31.005Z,27.93
2019-05-21T23:20:18.558Z,30.27
2019-05-21T23:23:06.868Z,29.37
2019-05-21T23:25:55.123Z,28.70
2019-05-21T23:28:42.688Z,28.70
2019-05-21T23:31:30.718Z,29.43
2019-05-21T23:34:19.022Z,28.50
2019-05-21T23:37:07.529Z,27.13
2019-05-21T23:39:55.735Z,26.43
2019-05-21T23:42:43.763Z,26.13
2019-05-21T23:45:31.642Z,25.43
2019-05-21T23:48:19.525Z,25.23
2019-05-21T23:51:07.205Z,26.97
2019-05-21T23:53:55.483Z,25.47
2019-05-21T23:56:43.774Z,24.40
2019-05-21T23:59:31.914Z,27.67
